Time;durP1;ratioP1;P1;durP2;ratioP2;P2;SDS_P1;SDS_P2;PMS_P1;PMS_P2;Temp;Humidity;BMP_temperature;BMP_pressure;BME280_temperature;BME280_humidity;BME280_pressure;Samples;Min_cycle;Max_cycle;Signal;HPM_P1;HPM_P2
2022/11/09 00:00:10;;;;;;;0.00;0.00;;;;;;;;;;5015623;28;20069;-85
2022/11/09 00:02:37;;;;;;;0.00;0.00;;;;;;;;;;4997039;28;20037;-85
2022/11/09 00:05:03;;;;;;;0.05;0.05;;;;;;;;;;5006950;28;20046;-84
2022/11/09 00:07:30;;;;;;;0.00;0.00;;;;;;;;;;4986372;28;20072;-84
2022/11/09 00:09:56;;;;;;;0.00;0.00;;;;;;;;;;4995576;28;20038;-85
2022/11/09 00:12:23;;;;;;;0.00;0.00;;;;;;;;;;4997294;28;20038;-85
2022/11/09 00:14:49;;;;;;;0.00;0.00;;;;;;;;;;5005817;28;20475;-85
2022/11/09 00:17:15;;;;;;;0.00;0.00;;;;;;;;;;5001708;28;20027;-85
2022/11/09 00:19:42;;;;;;;0.05;0.05;;;;;;;;;;4996279;28;20616;-85
2022/11/09 00:22:08;;;;;;;0.00;0.00;;;;;;;;;;5020129;28;20068;-85
2022/11/09 00:24:34;;;;;;;0.00;0.00;;;;;;;;;;5010513;28;20030;-85
2022/11/09 00:27:01;;;;;;;0.00;0.00;;;;;;;;;;4988540;28;20484;-85
2022/11/09 00:29:28;;;;;;;0.00;0.00;;;;;;;;;;4996898;28;20117;-84
2022/11/09 00:31:54;;;;;;;0.00;0.00;;;;;;;;;;4997218;28;20382;-87
2022/11/09 00:34:20;;;;;;;0.00;0.00;;;;;;;;;;4989452;28;20080;-85
2022/11/09 00:36:47;;;;;;;0.00;0.00;;;;;;;;;;4992167;28;20069;-84
2022/11/09 00:39:13;;;;;;;0.00;0.00;;;;;;;;;;4999084;28;20128;-85
2022/11/09 00:41:39;;;;;;;0.43;0.43;;;;;;;;;;5009007;28;20109;-85
2022/11/09 00:44:06;;;;;;;0.00;0.00;;;;;;;;;;4986374;28;20081;-85
2022/11/09 00:46:32;;;;;;;0.00;0.00;;;;;;;;;;5000836;28;20040;-85
2022/11/09 00:48:58;;;;;;;0.00;0.00;;;;;;;;;;5003521;28;20510;-85
2022/11/09 00:51:25;;;;;;;0.00;0.00;;;;;;;;;;5003363;28;20534;-85
2022/11/09 00:53:53;;;;;;;1.90;1.80;;;;;;;;;;4983609;28;20449;-86
2022/11/09 00:56:20;;;;;;;0.55;0.55;;;;;;;;;;4977213;28;20113;-86
2022/11/09 00:58:46;;;;;;;0.00;0.00;;;;;;;;;;4982388;28;20034;-85
2022/11/09 01:01:14;;;;;;;0.00;0.00;;;;;;;;;;4995835;28;20041;-86
2022/11/09 01:03:40;;;;;;;0.00;0.00;;;;;;;;;;5006330;28;20084;-85
2022/11/09 01:06:07;;;;;;;0.03;0.03;;;;;;;;;;5011087;28;20062;-86
2022/11/09 01:08:34;;;;;;;0.00;0.00;;;;;;;;;;5004414;28;20038;-85
2022/11/09 01:11:07;;;;;;;0.00;0.00;;;;;;;;;;5003959;28;20493;-85
2022/11/09 01:13:34;;;;;;;4.72;4.30;;;;;;;;;;5011886;28;20048;-85
2022/11/09 01:16:04;;;;;;;0.00;0.00;;;;;;;;;;4981221;28;20034;-86
2022/11/09 01:18:30;;;;;;;0.00;0.00;;;;;;;;;;5006403;28;20430;-85
2022/11/09 01:20:56;;;;;;;0.55;0.55;;;;;;;;;;5005441;28;20079;-86
2022/11/09 01:23:22;;;;;;;0.30;0.30;;;;;;;;;;5013032;28;20049;-86
2022/11/09 01:25:49;;;;;;;0.20;0.20;;;;;;;;;;5005150;28;20041;-86
2022/11/09 01:28:15;;;;;;;3.08;2.47;;;;;;;;;;4998113;28;20041;-85
2022/11/09 01:30:42;;;;;;;0.00;0.00;;;;;;;;;;5005663;28;20045;-85
2022/11/09 01:33:10;;;;;;;0.00;0.00;;;;;;;;;;5008920;28;20058;-84
2022/11/09 01:35:37;;;;;;;0.55;0.55;;;;;;;;;;5012659;28;20105;-84
2022/11/09 01:38:04;;;;;;;0.00;0.00;;;;;;;;;;5003578;28;20045;-84
2022/11/09 01:40:31;;;;;;;2.17;1.38;;;;;;;;;;4992737;28;20055;-84
2022/11/09 01:42:58;;;;;;;0.00;0.00;;;;;;;;;;4991305;28;20423;-85
2022/11/09 01:45:28;;;;;;;0.00;0.00;;;;;;;;;;5006128;28;20037;-84
2022/11/09 01:48:01;;;;;;;1.17;1.17;;;;;;;;;;4999789;28;20077;-82
2022/11/09 01:50:31;;;;;;;0.00;0.00;;;;;;;;;;4997942;28;20038;-84
2022/11/09 01:52:57;;;;;;;0.28;0.28;;;;;;;;;;4997112;28;20042;-83
2022/11/09 01:55:24;;;;;;;1.08;1.02;;;;;;;;;;5003293;28;20026;-84
2022/11/09 01:57:50;;;;;;;4.90;4.57;;;;;;;;;;5007199;28;20034;-85
2022/11/09 02:00:17;;;;;;;0.57;0.57;;;;;;;;;;5012502;28;20114;-84
2022/11/09 02:02:46;;;;;;;0.00;0.00;;;;;;;;;;5012189;28;20544;-84
2022/11/09 02:05:14;;;;;;;1.45;0.32;;;;;;;;;;4991194;28;20589;-83
2022/11/09 02:07:52;;;;;;;4.47;1.50;;;;;;;;;;5010268;28;20144;-86
2022/11/09 02:10:43;;;;;;;5.85;1.55;;;;;;;;;;5019636;28;20601;-86
2022/11/09 02:13:41;;;;;;;0.00;0.00;;;;;;;;;;4999120;28;20076;-84
2022/11/09 02:16:39;;;;;;;0.50;0.47;;;;;;;;;;4993927;28;20064;-90
2022/11/09 02:19:17;;;;;;;0.32;0.32;;;;;;;;;;4992674;28;20054;-88
2022/11/09 02:22:08;;;;;;;2.30;2.20;;;;;;;;;;4981066;28;20141;-90
2022/11/09 02:25:02;;;;;;;0.90;0.85;;;;;;;;;;5001850;28;20558;-87
2022/11/09 02:27:32;;;;;;;0.13;0.13;;;;;;;;;;4983973;28;20221;-88
2022/11/09 02:30:15;;;;;;;;;;;;;;;;;;;;;
2022/11/09 02:33:11;;;;;;;0.73;0.73;;;;;;;;;;5007212;28;20050;-87
2022/11/09 02:42:16;;;;;;;0.00;0.00;;;;;;;;;;4907641;29;20389;-86
2022/11/09 02:44:47;;;;;;;0.20;0.20;;;;;;;;;;4959264;28;20548;-85
2022/11/09 02:47:14;;;;;;;0.85;0.85;;;;;;;;;;4995495;28;20069;-85
2022/11/09 02:49:41;;;;;;;0.00;0.00;;;;;;;;;;4999953;28;20517;-85
2022/11/09 02:52:52;;;;;;;4.63;2.45;;;;;;;;;;4982814;28;20034;-90
2022/11/09 02:55:34;;;;;;;4.15;3.75;;;;;;;;;;4974642;28;20026;-90
2022/11/09 02:58:02;;;;;;;1.92;1.30;;;;;;;;;;4989616;28;20026;-91
2022/11/09 03:00:35;;;;;;;0.25;0.25;;;;;;;;;;4988527;28;20502;-85
2022/11/09 03:03:04;;;;;;;2.08;1.98;;;;;;;;;;5001817;28;20061;-89
2022/11/09 03:06:06;;;;;;;0.43;0.43;;;;;;;;;;4979209;28;20058;-89
2022/11/09 03:08:39;;;;;;;0.25;0.25;;;;;;;;;;4988843;28;20197;-89
2022/11/09 03:11:05;;;;;;;3.35;2.38;;;;;;;;;;4978773;28;20482;-87
2022/11/09 03:14:00;;;;;;;4.07;3.78;;;;;;;;;;4979787;28;20042;-85
2022/11/09 03:16:53;;;;;;;7.85;7.50;;;;;;;;;;4954263;28;20116;-87
2022/11/09 03:22:41;;;;;;;3.50;1.27;;;;;;;;;;4974813;28;21717;-87
2022/11/09 03:25:10;;;;;;;0.63;0.63;;;;;;;;;;4993741;28;20431;-87
2022/11/09 03:27:39;;;;;;;0.85;0.85;;;;;;;;;;4994122;28;20039;-87
2022/11/09 03:30:06;;;;;;;0.38;0.38;;;;;;;;;;4980264;28;20117;-87
2022/11/09 03:32:32;;;;;;;0.00;0.00;;;;;;;;;;4998397;28;20490;-88
2022/11/09 03:35:04;;;;;;;0.15;0.15;;;;;;;;;;4990877;28;20070;-89
2022/11/09 03:37:37;;;;;;;0.38;0.38;;;;;;;;;;4981349;28;20095;-88
2022/11/09 03:40:42;;;;;;;6.05;5.75;;;;;;;;;;4999195;28;20076;-87
2022/11/09 03:43:16;;;;;;;0.00;0.00;;;;;;;;;;4978923;28;20061;-86
2022/11/09 03:45:48;;;;;;;2.95;2.75;;;;;;;;;;5002852;28;20093;-87
2022/11/09 03:48:14;;;;;;;0.20;0.20;;;;;;;;;;5010339;28;20044;-88
2022/11/09 03:50:43;;;;;;;2.35;0.90;;;;;;;;;;5007264;28;20041;-88
2022/11/09 03:53:10;;;;;;;0.20;0.20;;;;;;;;;;5001154;28;20084;-89
2022/11/09 03:55:37;;;;;;;0.47;0.47;;;;;;;;;;4981795;28;20497;-92
2022/11/09 03:58:06;;;;;;;4.28;1.75;;;;;;;;;;4989104;28;20029;-89
2022/11/09 04:00:34;;;;;;;0.00;0.00;;;;;;;;;;5003209;28;20482;-89
2022/11/09 04:03:01;;;;;;;1.65;1.55;;;;;;;;;;5002116;28;20069;-90
2022/11/09 04:05:28;;;;;;;0.00;0.00;;;;;;;;;;5002919;28;20052;-88
2022/11/09 04:07:57;;;;;;;0.00;0.00;;;;;;;;;;5007489;28;20053;-89
2022/11/09 04:10:25;;;;;;;0.00;0.00;;;;;;;;;;5001480;28;20042;-88
2022/11/09 04:12:51;;;;;;;0.00;0.00;;;;;;;;;;4991603;28;20368;-90
2022/11/09 04:15:18;;;;;;;0.30;0.20;;;;;;;;;;4991488;28;20711;-88
2022/11/09 04:17:45;;;;;;;1.52;1.48;;;;;;;;;;5007349;28;20038;-89
2022/11/09 04:20:13;;;;;;;0.08;0.08;;;;;;;;;;5009571;28;20419;-88
2022/11/09 04:22:40;;;;;;;2.50;2.40;;;;;;;;;;5009059;28;20042;-89
2022/11/09 04:25:06;;;;;;;1.08;1.00;;;;;;;;;;5009244;28;20242;-90
2022/11/09 04:27:33;;;;;;;2.95;1.77;;;;;;;;;;5001089;28;20041;-88
2022/11/09 04:29:59;;;;;;;0.00;0.00;;;;;;;;;;4991821;28;20180;-89
2022/11/09 04:32:26;;;;;;;0.22;0.22;;;;;;;;;;4994625;28;21080;-90
2022/11/09 04:35:18;;;;;;;1.10;1.10;;;;;;;;;;5004256;28;20129;-91
2022/11/09 04:37:53;;;;;;;0.00;0.00;;;;;;;;;;4990943;28;20042;-91
2022/11/09 04:40:20;;;;;;;0.70;0.35;;;;;;;;;;4996424;28;20079;-90
2022/11/09 04:43:02;;;;;;;;;;;;;;;;;;;;;
2022/11/09 04:51:55;;;;;;;0.00;0.00;;;;;;;;;;5011092;28;20132;-88
2022/11/09 04:55:03;;;;;;;;;;;;;;;;;;;;;
2022/11/09 04:57:37;;;;;;;6.13;1.95;;;;;;;;;;4991477;28;20050;-88
2022/11/09 05:00:32;;;;;;;;;;;;;;;;;;;;;
2022/11/09 05:03:03;;;;;;;0.00;0.00;;;;;;;;;;5032367;28;20124;-88
2022/11/09 05:05:47;;;;;;;;;;;;;;;;;;;;;
2022/11/09 05:08:28;;;;;;;3.83;3.53;;;;;;;;;;5012455;28;20033;-89
2022/11/09 05:11:09;;;;;;;1.83;1.73;;;;;;;;;;5000817;28;20037;-88
2022/11/09 05:13:51;;;;;;;6.70;5.05;;;;;;;;;;5017079;28;20037;-89
2022/11/09 05:16:22;;;;;;;3.60;3.33;;;;;;;;;;5026645;28;20038;-86
2022/11/09 05:18:57;;;;;;;2.42;2.22;;;;;;;;;;5028288;28;20439;-89
2022/11/09 05:21:30;;;;;;;3.17;2.38;;;;;;;;;;5025979;28;20040;-89
2022/11/09 05:24:10;;;;;;;1.92;1.77;;;;;;;;;;5014517;28;20048;-88
2022/11/09 05:26:39;;;;;;;1.67;1.65;;;;;;;;;;5005863;28;20064;-90
2022/11/09 05:29:20;;;;;;;12.75;10.50;;;;;;;;;;5022608;28;20513;-90
2022/11/09 05:32:11;;;;;;;13.52;8.35;;;;;;;;;;5003515;28;20062;-88
2022/11/09 05:35:06;;;;;;;;;;;;;;;;;;;;;
2022/11/09 05:43:38;;;;;;;3.45;2.08;;;;;;;;;;5032812;28;20040;-90
2022/11/09 05:46:32;;;;;;;6.97;6.43;;;;;;;;;;5013802;28;20367;-90
2022/11/09 05:49:07;;;;;;;4.90;4.57;;;;;;;;;;5012041;28;20061;-90
2022/11/09 05:51:57;;;;;;;4.07;3.83;;;;;;;;;;4993073;28;20041;-88
2022/11/09 05:57:42;;;;;;;14.02;7.75;;;;;;;;;;4958793;28;20035;-90
2022/11/09 06:00:15;;;;;;;10.50;7.88;;;;;;;;;;5002812;28;20037;-89
2022/11/09 06:02:53;;;;;;;10.23;9.10;;;;;;;;;;5005933;28;20045;-91
2022/11/09 06:05:33;;;;;;;3.15;2.90;;;;;;;;;;5003048;28;20038;-89
2022/11/09 06:08:03;;;;;;;5.72;4.25;;;;;;;;;;5004471;28;20042;-89
2022/11/09 06:10:36;;;;;;;2.15;2.05;;;;;;;;;;4998245;28;20136;-88
2022/11/09 06:13:10;;;;;;;41.75;22.58;;;;;;;;;;4997987;28;20086;-91
2022/11/09 06:15:54;;;;;;;10.38;4.75;;;;;;;;;;5004758;28;20039;-89
2022/11/09 06:18:33;;;;;;;8.40;7.03;;;;;;;;;;5001252;28;20118;-89
2022/11/09 06:21:04;;;;;;;9.57;8.90;;;;;;;;;;4995879;28;20034;-87
2022/11/09 06:23:57;;;;;;;6.47;5.85;;;;;;;;;;4998226;28;20486;-89
2022/11/09 06:27:05;;;;;;;5.03;4.72;;;;;;;;;;5002293;28;20038;-89
2022/11/09 06:29:45;;;;;;;7.47;5.82;;;;;;;;;;5004387;28;20042;-87
2022/11/09 06:32:15;;;;;;;2.08;1.95;;;;;;;;;;4998175;28;20061;-87
2022/11/09 06:34:47;;;;;;;2.05;1.92;;;;;;;;;;5002124;28;20042;-88
2022/11/09 06:37:17;;;;;;;11.15;9.07;;;;;;;;;;5014315;28;20030;-88
2022/11/09 06:39:53;;;;;;;31.52;11.15;;;;;;;;;;5008119;28;20034;-89
2022/11/09 06:42:52;;;;;;;;;;;;;;;;;;;;;
2022/11/09 06:45:25;;;;;;;12.70;7.13;;;;;;;;;;4992361;28;20040;-88
2022/11/09 06:48:06;;;;;;;2.92;1.70;;;;;;;;;;5003696;28;20025;-89
2022/11/09 06:50:37;;;;;;;4.35;2.15;;;;;;;;;;4998486;28;20037;-88
2022/11/09 06:53:17;;;;;;;3.65;3.45;;;;;;;;;;5020236;28;20037;-88
2022/11/09 06:56:25;;;;;;;4.13;3.80;;;;;;;;;;5012064;28;20030;-89
2022/11/09 06:59:08;;;;;;;0.28;0.28;;;;;;;;;;4989559;28;20055;-89
2022/11/09 07:01:45;;;;;;;16.42;3.55;;;;;;;;;;4983468;28;20050;-88
2022/11/09 07:04:49;;;;;;;1.20;1.10;;;;;;;;;;5003549;28;20094;-89
2022/11/09 07:07:27;;;;;;;;;;;;;;;;;;;;;
2022/11/09 07:19:39;;;;;;;1.58;1.58;;;;;;;;;;4962906;28;20137;-88
2022/11/09 07:25:33;;;;;;;0.00;0.00;;;;;;;;;;4968107;28;20383;-87
2022/11/09 07:28:27;;;;;;;21.00;4.18;;;;;;;;;;4976958;28;20789;-87
2022/11/09 07:46:34;;;;;;;0.25;0.25;;;;;;;;;;4980269;28;20447;-87
2022/11/09 07:52:35;;;;;;;2.83;2.63;;;;;;;;;;4925057;29;20040;-89
2022/11/09 07:55:20;;;;;;;10.70;4.30;;;;;;;;;;4976227;28;20069;-85
2022/11/09 07:58:29;;;;;;;8.15;5.28;;;;;;;;;;5013643;28;20132;-85
2022/11/09 08:08:15;;;;;;;9.10;6.60;;;;;;;;;;4954370;28;20043;-87
2022/11/09 08:10:54;;;;;;;11.30;4.25;;;;;;;;;;4958769;28;20043;-88
2022/11/09 08:13:31;;;;;;;2.25;1.95;;;;;;;;;;4999698;28;20049;-90
2022/11/09 08:16:25;;;;;;;9.77;5.07;;;;;;;;;;5035599;28;20037;-88
2022/11/09 08:19:07;;;;;;;;;;;;;;;;;;;;;
2022/11/09 08:22:14;;;;;;;8.18;2.50;;;;;;;;;;5017994;28;20032;-87
2022/11/09 08:25:23;;;;;;;5.80;3.28;;;;;;;;;;5006841;28;20157;-88
2022/11/09 08:27:52;;;;;;;8.13;4.50;;;;;;;;;;4991157;28;20474;-87
2022/11/09 08:30:30;;;;;;;6.65;4.40;;;;;;;;;;5011768;28;20042;-87
2022/11/09 08:33:26;;;;;;;8.30;4.85;;;;;;;;;;5013657;28;20065;-88
2022/11/09 08:36:31;;;;;;;;;;;;;;;;;;;;;
2022/11/09 08:39:38;;;;;;;8.77;3.65;;;;;;;;;;5010047;28;20393;-89
2022/11/09 08:42:25;;;;;;;1.92;1.17;;;;;;;;;;4998518;28;20040;-88
2022/11/09 08:45:17;;;;;;;4.13;2.95;;;;;;;;;;5019351;28;20708;-86
2022/11/09 08:47:58;;;;;;;0.82;0.50;;;;;;;;;;5012196;28;20046;-87
2022/11/09 08:50:53;;;;;;;1.00;1.00;;;;;;;;;;4997166;28;20049;-88
2022/11/09 08:53:26;;;;;;;2.92;1.40;;;;;;;;;;5008382;28;20069;-87
2022/11/09 08:56:00;;;;;;;0.10;0.10;;;;;;;;;;5012398;28;20044;-87
2022/11/09 08:58:54;;;;;;;0.57;0.38;;;;;;;;;;5014760;28;20481;-85
2022/11/09 09:08:04;;;;;;;0.20;0.17;;;;;;;;;;4939785;28;20090;-85
2022/11/09 09:11:17;;;;;;;;;;;;;;;;;;;;;
2022/11/09 09:14:06;;;;;;;0.00;0.00;;;;;;;;;;5002126;28;20061;-86
2022/11/09 09:16:52;;;;;;;0.10;0.10;;;;;;;;;;5012474;28;20112;-86
2022/11/09 09:19:37;;;;;;;1.55;0.90;;;;;;;;;;5011675;28;20402;-87
2022/11/09 09:22:16;;;;;;;2.90;1.42;;;;;;;;;;4998950;28;20088;-86
2022/11/09 09:25:00;;;;;;;2.55;1.92;;;;;;;;;;5001387;28;20051;-86
2022/11/09 09:30:36;;;;;;;;;;;;;;;;;;;;;
2022/11/09 09:33:16;;;;;;;;;;;;;;;;;;;;;
2022/11/09 09:35:46;;;;;;;5.97;3.17;;;;;;;;;;5014077;28;20471;-85
2022/11/09 09:38:13;;;;;;;5.88;4.00;;;;;;;;;;5019658;28;20034;-85
2022/11/09 09:40:57;;;;;;;3.15;2.17;;;;;;;;;;5011652;28;20037;-86
2022/11/09 09:43:31;;;;;;;5.07;2.63;;;;;;;;;;5008561;28;20495;-85
2022/11/09 09:46:23;;;;;;;1.50;1.40;;;;;;;;;;5012569;28;20076;-86
2022/11/09 09:49:09;;;;;;;5.95;3.25;;;;;;;;;;5010448;28;20384;-86
2022/11/09 09:51:48;;;;;;;0.30;0.30;;;;;;;;;;5011527;28;20056;-85
2022/11/09 09:54:33;;;;;;;1.80;1.70;;;;;;;;;;5006796;28;20046;-84
2022/11/09 09:57:05;;;;;;;4.60;3.35;;;;;;;;;;5013450;28;20041;-86
2022/11/09 09:59:42;;;;;;;2.45;1.73;;;;;;;;;;5007549;28;20087;-87
2022/11/09 10:05:17;;;;;;;7.85;3.15;;;;;;;;;;4985939;28;20056;-85
2022/11/09 10:11:17;;;;;;;2.20;1.27;;;;;;;;;;5002210;28;20026;-85
2022/11/09 10:13:47;;;;;;;3.72;3.13;;;;;;;;;;5010060;28;20038;-86
2022/11/09 10:16:20;;;;;;;0.00;0.00;;;;;;;;;;5012585;28;20041;-84
2022/11/09 10:18:55;;;;;;;1.77;1.67;;;;;;;;;;5013544;28;20040;-85
2022/11/09 10:21:40;;;;;;;0.98;0.90;;;;;;;;;;5010698;28;20076;-85
2022/11/09 10:24:10;;;;;;;0.45;0.45;;;;;;;;;;5002133;28;20042;-84
2022/11/09 10:27:02;;;;;;;3.72;2.78;;;;;;;;;;5009089;28;20033;-85
2022/11/09 10:29:46;;;;;;;3.75;2.33;;;;;;;;;;5001981;28;20057;-85
2022/11/09 10:32:23;;;;;;;2.20;2.00;;;;;;;;;;4994974;28;20041;-85
2022/11/09 10:35:01;;;;;;;2.88;1.23;;;;;;;;;;5018321;28;20037;-84
2022/11/09 10:37:35;;;;;;;1.92;0.88;;;;;;;;;;5014539;28;20033;-85
2022/11/09 10:40:20;;;;;;;5.80;3.55;;;;;;;;;;5015953;28;20033;-85
2022/11/09 10:42:58;;;;;;;4.13;2.05;;;;;;;;;;5003411;28;20049;-84
2022/11/09 10:45:34;;;;;;;2.22;2.03;;;;;;;;;;5010836;28;20076;-84
2022/11/09 10:48:03;;;;;;;0.00;0.00;;;;;;;;;;5010481;28;20026;-85
2022/11/09 10:50:41;;;;;;;3.20;1.60;;;;;;;;;;5014924;28;20057;-83
2022/11/09 10:53:15;;;;;;;2.20;1.23;;;;;;;;;;5024295;28;20049;-84
2022/11/09 10:55:59;;;;;;;3.80;2.35;;;;;;;;;;5013387;28;20030;-85
2022/11/09 10:58:30;;;;;;;2.97;1.33;;;;;;;;;;5011158;28;20115;-85
2022/11/09 11:01:18;;;;;;;5.03;2.75;;;;;;;;;;5014429;28;20038;-85
2022/11/09 11:03:51;;;;;;;2.00;1.45;;;;;;;;;;5008674;28;20371;-84
2022/11/09 11:06:37;;;;;;;12.60;3.03;;;;;;;;;;5006634;28;20332;-84
2022/11/09 11:09:10;;;;;;;0.00;0.00;;;;;;;;;;5012197;28;20482;-85
2022/11/09 11:11:38;;;;;;;0.00;0.00;;;;;;;;;;5008715;28;21563;-85
2022/11/09 11:14:25;;;;;;;0.88;0.88;;;;;;;;;;5015114;28;20788;-85
2022/11/09 11:16:56;;;;;;;1.45;1.02;;;;;;;;;;5013286;28;20551;-84
2022/11/09 11:19:26;;;;;;;0.00;0.00;;;;;;;;;;5001600;28;20486;-86
2022/11/09 11:22:21;;;;;;;1.00;1.00;;;;;;;;;;4998595;28;20033;-87
2022/11/09 11:24:55;;;;;;;14.05;4.90;;;;;;;;;;5019195;28;20149;-86
2022/11/09 11:27:25;;;;;;;1.30;1.27;;;;;;;;;;5011461;28;20066;-86
2022/11/09 11:30:12;;;;;;;0.10;0.10;;;;;;;;;;5018568;28;20025;-86
2022/11/09 11:32:40;;;;;;;0.57;0.57;;;;;;;;;;5013117;28;20037;-85
2022/11/09 11:35:29;;;;;;;0.10;0.10;;;;;;;;;;5016130;28;20116;-85
2022/11/09 11:38:17;;;;;;;0.22;0.22;;;;;;;;;;5014251;28;20029;-85
2022/11/09 11:41:04;;;;;;;3.63;1.75;;;;;;;;;;5018762;28;20030;-86
2022/11/09 12:00:27;;;;;;;0.00;0.00;;;;;;;;;;5939901;23;4852567;-81
2022/11/09 12:03:22;;;;;;;;;;;;;;;;;;;;;
2022/11/09 12:06:28;;;;;;;0.00;0.00;;;;;;;;;;6138066;23;20089;-84
2022/11/09 12:09:24;;;;;;;2.63;2.35;;;;;;;;;;6126232;23;20002;-84
2022/11/09 12:11:50;;;;;;;8.10;5.75;;;;;;;;;;6110448;23;20006;-84
2022/11/09 12:14:45;;;;;;;;;;;;;;;;;;;;;
2022/11/09 12:17:43;;;;;;;;;;;;;;;;;;;;;
2022/11/09 12:20:32;;;;;;;10.80;6.75;;;;;;;;;;6137665;23;20089;-86
2022/11/09 12:23:09;;;;;;;10.30;3.70;;;;;;;;;;6109683;23;20088;-86
2022/11/09 12:26:08;;;;;;;17.92;8.68;;;;;;;;;;6113955;23;20029;-83
2022/11/09 12:29:02;;;;;;;4.78;3.42;;;;;;;;;;6097381;23;20014;-82
2022/11/09 12:31:52;;;;;;;5.70;5.28;;;;;;;;;;6151657;23;20029;-82
2022/11/09 12:34:23;;;;;;;5.18;3.33;;;;;;;;;;6141604;23;20005;-83
2022/11/09 12:36:52;;;;;;;3.45;2.70;;;;;;;;;;6136381;23;20000;-85
2022/11/09 12:39:47;;;;;;;3.95;2.95;;;;;;;;;;6135075;23;20008;-85
2022/11/09 12:42:20;;;;;;;9.02;4.30;;;;;;;;;;6084257;23;20080;-84
2022/11/09 12:44:51;;;;;;;10.40;7.07;;;;;;;;;;6134457;23;20006;-85
2022/11/09 12:47:20;;;;;;;1.73;1.55;;;;;;;;;;6133612;23;20399;-85
2022/11/09 12:49:47;;;;;;;3.63;3.33;;;;;;;;;;6134237;23;20089;-85
2022/11/09 12:52:15;;;;;;;1.80;1.02;;;;;;;;;;6109569;23;20133;-85
2022/11/09 12:54:43;;;;;;;0.43;0.43;;;;;;;;;;6107453;23;20017;-84
2022/11/09 12:57:13;;;;;;;5.32;3.22;;;;;;;;;;6129813;23;20077;-84
2022/11/09 12:59:53;;;;;;;2.17;1.98;;;;;;;;;;6102876;23;20108;-83
2022/11/09 13:02:19;;;;;;;4.78;3.97;;;;;;;;;;6102099;23;20346;-83
2022/11/09 13:04:54;;;;;;;1.67;1.25;;;;;;;;;;6102243;23;20089;-83
2022/11/09 13:07:29;;;;;;;0.10;0.10;;;;;;;;;;6129112;23;20072;-83
2022/11/09 13:09:57;;;;;;;11.95;5.78;;;;;;;;;;6102720;23;20376;-83
2022/11/09 13:12:31;;;;;;;0.80;0.80;;;;;;;;;;6106044;23;20002;-82
2022/11/09 13:14:57;;;;;;;3.67;3.42;;;;;;;;;;6153129;23;19988;-83
2022/11/09 13:17:23;;;;;;;0.63;0.43;;;;;;;;;;6153143;23;20013;-83
2022/11/09 13:19:54;;;;;;;0.50;0.50;;;;;;;;;;6144540;23;20006;-83
2022/11/09 13:22:21;;;;;;;10.23;7.53;;;;;;;;;;6128991;23;20009;-83
2022/11/09 13:24:48;;;;;;;0.43;0.43;;;;;;;;;;6103062;23;20037;-83
2022/11/09 13:27:32;;;;;;;0.40;0.40;;;;;;;;;;6119022;23;19990;-81
2022/11/09 13:29:59;;;;;;;3.05;2.33;;;;;;;;;;6125405;23;20005;-80
2022/11/09 13:32:27;;;;;;;5.10;4.43;;;;;;;;;;6140443;23;20065;-83
2022/11/09 13:34:54;;;;;;;8.23;7.65;;;;;;;;;;6129183;23;19998;-81
2022/11/09 13:37:36;;;;;;;8.15;7.15;;;;;;;;;;6102023;23;20030;-83
2022/11/09 13:40:21;;;;;;;6.85;6.05;;;;;;;;;;6101865;23;20010;-80
2022/11/09 13:42:56;;;;;;;0.10;0.10;;;;;;;;;;6098803;23;20009;-81
2022/11/09 13:45:27;;;;;;;8.43;7.57;;;;;;;;;;6100855;23;20089;-80
2022/11/09 13:47:56;;;;;;;0.00;0.00;;;;;;;;;;6100940;23;20434;-82
2022/11/09 13:50:23;;;;;;;3.38;3.20;;;;;;;;;;6127044;23;20006;-81
2022/11/09 13:52:51;;;;;;;1.02;1.02;;;;;;;;;;6101065;23;20010;-81
2022/11/09 13:55:25;;;;;;;1.20;1.20;;;;;;;;;;6100134;23;20049;-80
2022/11/09 13:57:57;;;;;;;0.15;0.15;;;;;;;;;;6100184;23;20013;-80
2022/11/09 14:00:24;;;;;;;0.22;0.22;;;;;;;;;;6125350;23;20014;-81
2022/11/09 14:02:56;;;;;;;0.50;0.50;;;;;;;;;;6104032;23;20010;-78
2022/11/09 14:05:24;;;;;;;0.00;0.00;;;;;;;;;;6099922;23;20005;-77
2022/11/09 14:07:52;;;;;;;1.52;1.42;;;;;;;;;;6097171;23;20410;-76
2022/11/09 14:10:18;;;;;;;2.65;1.30;;;;;;;;;;6124328;23;20010;-76
2022/11/09 14:12:51;;;;;;;0.80;0.80;;;;;;;;;;6100626;23;20010;-77
2022/11/09 14:15:26;;;;;;;1.33;1.30;;;;;;;;;;6100245;23;20014;-81
2022/11/09 14:18:10;;;;;;;0.55;0.55;;;;;;;;;;6126219;23;20010;-82
2022/11/09 14:20:40;;;;;;;1.08;1.08;;;;;;;;;;6101151;23;20006;-83
2022/11/09 14:23:20;;;;;;;0.00;0.00;;;;;;;;;;6099615;23;20033;-78
2022/11/09 14:25:48;;;;;;;1.02;1.02;;;;;;;;;;6104995;23;20109;-79
2022/11/09 14:28:20;;;;;;;0.73;0.73;;;;;;;;;;6126161;23;20043;-80
2022/11/09 14:30:46;;;;;;;1.02;1.02;;;;;;;;;;6099397;23;20002;-80
2022/11/09 14:33:22;;;;;;;0.00;0.00;;;;;;;;;;6099043;23;20021;-79
2022/11/09 14:35:48;;;;;;;1.10;1.05;;;;;;;;;;6124798;23;20065;-79
2022/11/09 14:38:19;;;;;;;0.00;0.00;;;;;;;;;;6098326;23;20017;-79
2022/11/09 14:40:47;;;;;;;3.63;2.30;;;;;;;;;;6125202;23;20375;-78
2022/11/09 14:43:13;;;;;;;0.00;0.00;;;;;;;;;;6122843;23;20006;-78
2022/11/09 14:45:50;;;;;;;9.50;9.07;;;;;;;;;;6124049;23;20129;-81
2022/11/09 14:48:17;;;;;;;0.20;0.20;;;;;;;;;;6098807;23;20064;-74
2022/11/09 14:50:44;;;;;;;2.05;1.92;;;;;;;;;;6124661;23;20009;-76
2022/11/09 14:53:21;;;;;;;0.20;0.20;;;;;;;;;;6124766;23;20002;-77
2022/11/09 14:55:52;;;;;;;4.90;4.47;;;;;;;;;;6099575;23;20009;-76
2022/11/09 14:58:19;;;;;;;0.22;0.22;;;;;;;;;;6099398;23;20010;-77
2022/11/09 15:01:05;;;;;;;2.58;2.45;;;;;;;;;;6129133;23;20006;-76
2022/11/09 15:03:31;;;;;;;0.43;0.43;;;;;;;;;;6124644;23;20005;-76
2022/11/09 15:06:03;;;;;;;4.03;1.67;;;;;;;;;;6102780;23;20474;-76
2022/11/09 15:08:30;;;;;;;0.10;0.10;;;;;;;;;;6099188;23;20006;-77
2022/11/09 15:10:57;;;;;;;4.63;0.98;;;;;;;;;;6123767;23;20002;-77
2022/11/09 15:13:29;;;;;;;2.60;2.50;;;;;;;;;;6098375;23;20017;-77
2022/11/09 15:15:55;;;;;;;0.00;0.00;;;;;;;;;;6124368;23;20009;-76
2022/11/09 15:18:24;;;;;;;3.42;1.75;;;;;;;;;;6123589;23;20014;-76
2022/11/09 15:21:10;;;;;;;19.88;2.53;;;;;;;;;;6124804;23;20423;-76
2022/11/09 15:23:44;;;;;;;0.00;0.00;;;;;;;;;;6098808;23;20009;-77
2022/11/09 15:26:29;;;;;;;0.15;0.15;;;;;;;;;;6124648;23;20005;-77
2022/11/09 15:28:55;;;;;;;0.20;0.20;;;;;;;;;;6124673;23;20034;-79
2022/11/09 15:31:24;;;;;;;0.55;0.55;;;;;;;;;;6099753;23;20026;-80
2022/11/09 15:33:52;;;;;;;0.00;0.00;;;;;;;;;;6099854;23;20493;-76
2022/11/09 15:36:22;;;;;;;0.00;0.00;;;;;;;;;;6099450;23;20065;-78
2022/11/09 15:38:57;;;;;;;0.10;0.10;;;;;;;;;;6124595;23;20006;-78
2022/11/09 15:41:24;;;;;;;2.28;2.17;;;;;;;;;;6100664;23;20013;-78
2022/11/09 15:43:51;;;;;;;0.52;0.43;;;;;;;;;;6100172;23;20010;-79
2022/11/09 15:46:19;;;;;;;0.60;0.60;;;;;;;;;;6100414;23;20009;-77
2022/11/09 15:48:45;;;;;;;0.17;0.17;;;;;;;;;;6127225;23;19998;-79
2022/11/09 15:51:12;;;;;;;0.20;0.20;;;;;;;;;;6126673;23;20490;-79
2022/11/09 15:53:38;;;;;;;0.00;0.00;;;;;;;;;;6125106;23;20077;-80
2022/11/09 15:56:05;;;;;;;0.55;0.55;;;;;;;;;;6099408;23;20029;-80
2022/11/09 15:58:32;;;;;;;0.70;0.70;;;;;;;;;;6122594;23;20021;-82
2022/11/09 16:00:58;;;;;;;0.28;0.28;;;;;;;;;;6150327;23;20008;-82
2022/11/09 16:03:24;;;;;;;2.75;1.40;;;;;;;;;;6103157;23;20013;-82
2022/11/09 16:05:50;;;;;;;0.00;0.00;;;;;;;;;;6129706;23;20002;-83
2022/11/09 16:08:17;;;;;;;0.00;0.00;;;;;;;;;;6126969;23;20005;-83
2022/11/09 16:10:43;;;;;;;0.00;0.00;;;;;;;;;;6101014;23;20008;-83
2022/11/09 16:13:10;;;;;;;4.17;2.90;;;;;;;;;;6103994;23;20029;-82
2022/11/09 16:15:37;;;;;;;0.00;0.00;;;;;;;;;;6127633;23;20316;-82
2022/11/09 16:18:05;;;;;;;3.53;3.23;;;;;;;;;;6124326;23;20439;-81
2022/11/09 16:20:31;;;;;;;0.00;0.00;;;;;;;;;;6099621;23;20077;-80
2022/11/09 16:22:57;;;;;;;0.00;0.00;;;;;;;;;;6099523;23;20020;-80
2022/11/09 16:25:23;;;;;;;15.43;14.57;;;;;;;;;;6102180;23;20006;-81
2022/11/09 16:27:50;;;;;;;0.20;0.20;;;;;;;;;;6102142;23;20002;-81
2022/11/09 16:30:16;;;;;;;0.63;0.63;;;;;;;;;;6128503;23;20002;-79
2022/11/09 16:32:43;;;;;;;0.00;0.00;;;;;;;;;;6111892;23;20406;-80
2022/11/09 16:35:09;;;;;;;0.33;0.33;;;;;;;;;;6120916;23;20006;-81
2022/11/09 16:37:37;;;;;;;1.83;1.70;;;;;;;;;;6114647;23;20010;-81
2022/11/09 16:40:09;;;;;;;2.87;2.33;;;;;;;;;;6102656;23;20061;-80
2022/11/09 16:42:35;;;;;;;0.00;0.00;;;;;;;;;;6105690;23;20030;-80
2022/11/09 16:45:07;;;;;;;10.93;8.23;;;;;;;;;;6101949;23;20022;-80
2022/11/09 16:47:36;;;;;;;0.00;0.00;;;;;;;;;;6101763;23;20420;-81
2022/11/09 16:50:03;;;;;;;0.00;0.00;;;;;;;;;;6128271;23;20006;-81
2022/11/09 16:52:29;;;;;;;1.27;1.03;;;;;;;;;;6128519;23;20022;-81
2022/11/09 16:54:55;;;;;;;0.00;0.00;;;;;;;;;;6110040;23;20006;-80
2022/11/09 16:57:22;;;;;;;0.93;0.93;;;;;;;;;;6135034;23;20004;-81
2022/11/09 16:59:48;;;;;;;0.00;0.00;;;;;;;;;;6102004;23;20040;-81
2022/11/09 17:02:14;;;;;;;3.77;3.57;;;;;;;;;;6128097;23;20002;-81
2022/11/09 17:04:41;;;;;;;1.00;0.87;;;;;;;;;;6129733;23;20009;-81
2022/11/09 17:07:09;;;;;;;0.10;0.10;;;;;;;;;;6127884;23;20009;-79
2022/11/09 17:09:36;;;;;;;0.00;0.00;;;;;;;;;;6127303;23;20009;-81
2022/11/09 17:12:02;;;;;;;0.67;0.67;;;;;;;;;;6126552;23;20002;-80
2022/11/09 17:14:29;;;;;;;2.30;2.20;;;;;;;;;;6101347;23;20081;-80
2022/11/09 17:16:55;;;;;;;0.00;0.00;;;;;;;;;;6100409;23;20014;-81
2022/11/09 17:19:21;;;;;;;0.00;0.00;;;;;;;;;;6101699;23;20451;-80
2022/11/09 17:21:48;;;;;;;0.00;0.00;;;;;;;;;;6127543;23;20454;-81